USTRANSCOM 7537


KWRI
Joint Base McGuire Dix Lakehurst
Wrightstown, New Jersey, US
ETAR
Ramstein Air Force Base
Ramstein, , DE

Route Details

Aircraft Information
Primary: Boeing 767-300BDSF
Backup: Not Available
Route Data
Distance: 3379nm
Sched. Duration: 6h 50m
Avg. Duration: 7h 50m (+100m)
Times Flown: 1
Recm'd Route: PTPL5 SHLEP HTO WHALE N135A PORTI NATW ATSUR GAPLI UN20 SAM UM140 DVR UL9 KONAN UL607 SPI UT180 PESOV T180 NIVNU T847 SIPVU T847 OLIVI Q762 XIDOD
Planned Altitude: 35,000ft
Origin Wx: KWRI 051511Z AUTO 25011KT 10SM BKN020 27/21 A2993 RMK AO2 BKN V SCT CIG 018 RWY18 SLP134 $
Dest. Wx: ETAR 051532Z 23009G19KT 9000 -RA SCT017 BKN026 OVC031 12/12 A2945 RMK AO2A RAB02 CIG 026V032 CIG 022 RWY08 SLP976 FZRANO $
Notes: USTRANSCOM CONTRACT FLIGHT

Financial History
Total Freight: 61,536lbs
Average Load: 61,536lbs/flt
Fuel Used: 77,798lbs
Avg. Fuel Used: 77,798lbs/flt
Fuel Expense: $77,020
Avg. Fuel Expense: $77,020
Avg. Fuel Cost: $0.99/lbs
Total Gross Income: $121,841
Pilot Pay: $149
Total Expenses: $13,211
Total Revenue: $29,817
Average Revenue: $121,841.28